sensor_id;sensor_type;location;lat;lon;timestamp;P1;durP1;ratioP1;P2;durP2;ratioP2
9799;SDS011;4939;52.00085300;4.17406100;2022-09-02T00:00:44;6.65;;;1.63;;
9799;SDS011;4939;52.00085300;4.17406100;2022-09-02T00:03:18;5.38;;;1.60;;
9799;SDS011;4939;52.00085300;4.17406100;2022-09-02T00:05:44;5.07;;;1.50;;
9799;SDS011;4939;52.00085300;4.17406100;2022-09-02T00:08:11;5.22;;;2.22;;
9799;SDS011;4939;52.00085300;4.17406100;2022-09-02T00:10:38;6.93;;;1.70;;
9799;SDS011;4939;52.00085300;4.17406100;2022-09-02T00:13:06;4.65;;;1.60;;
9799;SDS011;4939;52.00085300;4.17406100;2022-09-02T00:15:33;3.85;;;1.48;;
9799;SDS011;4939;52.00085300;4.17406100;2022-09-02T00:17:59;5.35;;;1.50;;
9799;SDS011;4939;52.00085300;4.17406100;2022-09-02T00:20:26;4.40;;;1.40;;
9799;SDS011;4939;52.00085300;4.17406100;2022-09-02T00:22:52;5.32;;;1.50;;
9799;SDS011;4939;52.00085300;4.17406100;2022-09-02T00:25:18;4.10;;;1.45;;
9799;SDS011;4939;52.00085300;4.17406100;2022-09-02T00:27:45;4.97;;;1.63;;
9799;SDS011;4939;52.00085300;4.17406100;2022-09-02T00:30:11;5.13;;;1.60;;
9799;SDS011;4939;52.00085300;4.17406100;2022-09-02T00:32:37;3.22;;;1.10;;
9799;SDS011;4939;52.00085300;4.17406100;2022-09-02T00:35:03;3.97;;;1.38;;
9799;SDS011;4939;52.00085300;4.17406100;2022-09-02T00:37:30;4.70;;;1.38;;
9799;SDS011;4939;52.00085300;4.17406100;2022-09-02T00:39:56;4.70;;;1.50;;
9799;SDS011;4939;52.00085300;4.17406100;2022-09-02T00:42:22;3.40;;;1.45;;
9799;SDS011;4939;52.00085300;4.17406100;2022-09-02T00:44:49;6.32;;;1.70;;
9799;SDS011;4939;52.00085300;4.17406100;2022-09-02T00:47:15;7.63;;;1.50;;
9799;SDS011;4939;52.00085300;4.17406100;2022-09-02T00:49:43;5.05;;;1.67;;
9799;SDS011;4939;52.00085300;4.17406100;2022-09-02T00:52:12;5.80;;;1.60;;
9799;SDS011;4939;52.00085300;4.17406100;2022-09-02T00:54:43;5.43;;;1.40;;
9799;SDS011;4939;52.00085300;4.17406100;2022-09-02T00:57:11;4.53;;;1.50;;
9799;SDS011;4939;52.00085300;4.17406100;2022-09-02T01:02:25;4.88;;;1.40;;
9799;SDS011;4939;52.00085300;4.17406100;2022-09-02T01:04:53;5.85;;;1.40;;
9799;SDS011;4939;52.00085300;4.17406100;2022-09-02T01:07:21;6.65;;;1.58;;
9799;SDS011;4939;52.00085300;4.17406100;2022-09-02T01:09:47;4.32;;;1.30;;
9799;SDS011;4939;52.00085300;4.17406100;2022-09-02T01:12:15;6.20;;;1.38;;
9799;SDS011;4939;52.00085300;4.17406100;2022-09-02T01:14:41;4.18;;;1.50;;
9799;SDS011;4939;52.00085300;4.17406100;2022-09-02T01:17:07;6.32;;;1.50;;
9799;SDS011;4939;52.00085300;4.17406100;2022-09-02T01:19:34;3.60;;;1.20;;
9799;SDS011;4939;52.00085300;4.17406100;2022-09-02T01:22:01;5.85;;;1.40;;
9799;SDS011;4939;52.00085300;4.17406100;2022-09-02T01:24:30;4.82;;;1.40;;
9799;SDS011;4939;52.00085300;4.17406100;2022-09-02T01:26:58;4.97;;;1.40;;
9799;SDS011;4939;52.00085300;4.17406100;2022-09-02T01:29:25;4.53;;;1.40;;
9799;SDS011;4939;52.00085300;4.17406100;2022-09-02T01:31:51;3.80;;;1.38;;
9799;SDS011;4939;52.00085300;4.17406100;2022-09-02T01:34:18;5.53;;;1.63;;
9799;SDS011;4939;52.00085300;4.17406100;2022-09-02T01:36:44;3.88;;;1.23;;
9799;SDS011;4939;52.00085300;4.17406100;2022-09-02T01:39:10;4.13;;;1.55;;
9799;SDS011;4939;52.00085300;4.17406100;2022-09-02T01:41:37;3.65;;;1.27;;
9799;SDS011;4939;52.00085300;4.17406100;2022-09-02T01:44:03;11.07;;;1.58;;
9799;SDS011;4939;52.00085300;4.17406100;2022-09-02T01:46:30;4.88;;;1.45;;
9799;SDS011;4939;52.00085300;4.17406100;2022-09-02T01:48:56;5.45;;;1.38;;
9799;SDS011;4939;52.00085300;4.17406100;2022-09-02T01:51:22;4.60;;;1.30;;
9799;SDS011;4939;52.00085300;4.17406100;2022-09-02T01:53:48;6.90;;;1.73;;
9799;SDS011;4939;52.00085300;4.17406100;2022-09-02T01:56:14;5.35;;;1.58;;
9799;SDS011;4939;52.00085300;4.17406100;2022-09-02T01:58:40;3.88;;;1.30;;
9799;SDS011;4939;52.00085300;4.17406100;2022-09-02T02:01:07;7.10;;;1.40;;
9799;SDS011;4939;52.00085300;4.17406100;2022-09-02T02:03:34;6.10;;;1.48;;
9799;SDS011;4939;52.00085300;4.17406100;2022-09-02T02:06:01;4.00;;;1.30;;
9799;SDS011;4939;52.00085300;4.17406100;2022-09-02T02:08:27;6.70;;;1.60;;
9799;SDS011;4939;52.00085300;4.17406100;2022-09-02T02:10:53;4.93;;;1.65;;
9799;SDS011;4939;52.00085300;4.17406100;2022-09-02T02:13:21;6.22;;;1.60;;
9799;SDS011;4939;52.00085300;4.17406100;2022-09-02T02:15:47;6.03;;;1.50;;
9799;SDS011;4939;52.00085300;4.17406100;2022-09-02T02:18:13;6.10;;;1.65;;
9799;SDS011;4939;52.00085300;4.17406100;2022-09-02T02:20:39;4.93;;;1.50;;
9799;SDS011;4939;52.00085300;4.17406100;2022-09-02T02:23:05;6.32;;;1.52;;
9799;SDS011;4939;52.00085300;4.17406100;2022-09-02T02:25:31;6.10;;;1.48;;
9799;SDS011;4939;52.00085300;4.17406100;2022-09-02T02:27:58;4.45;;;1.45;;
9799;SDS011;4939;52.00085300;4.17406100;2022-09-02T02:30:24;4.13;;;1.50;;
9799;SDS011;4939;52.00085300;4.17406100;2022-09-02T02:32:50;4.03;;;1.20;;
9799;SDS011;4939;52.00085300;4.17406100;2022-09-02T02:35:16;4.78;;;1.33;;
9799;SDS011;4939;52.00085300;4.17406100;2022-09-02T02:37:43;11.85;;;1.40;;
9799;SDS011;4939;52.00085300;4.17406100;2022-09-02T02:40:13;3.45;;;1.40;;
9799;SDS011;4939;52.00085300;4.17406100;2022-09-02T02:42:39;5.78;;;1.33;;
9799;SDS011;4939;52.00085300;4.17406100;2022-09-02T02:45:05;3.53;;;1.30;;
9799;SDS011;4939;52.00085300;4.17406100;2022-09-02T02:47:36;4.88;;;1.40;;
9799;SDS011;4939;52.00085300;4.17406100;2022-09-02T02:50:03;6.60;;;1.80;;
9799;SDS011;4939;52.00085300;4.17406100;2022-09-02T02:52:29;4.38;;;1.63;;
9799;SDS011;4939;52.00085300;4.17406100;2022-09-02T02:54:55;5.75;;;1.42;;
9799;SDS011;4939;52.00085300;4.17406100;2022-09-02T02:57:21;4.35;;;1.60;;
9799;SDS011;4939;52.00085300;4.17406100;2022-09-02T02:59:47;4.75;;;1.38;;
9799;SDS011;4939;52.00085300;4.17406100;2022-09-02T03:02:13;7.40;;;1.50;;
9799;SDS011;4939;52.00085300;4.17406100;2022-09-02T03:04:40;4.78;;;1.70;;
9799;SDS011;4939;52.00085300;4.17406100;2022-09-02T03:07:08;5.53;;;1.60;;
9799;SDS011;4939;52.00085300;4.17406100;2022-09-02T03:09:34;4.65;;;1.33;;
9799;SDS011;4939;52.00085300;4.17406100;2022-09-02T03:12:00;4.10;;;1.40;;
9799;SDS011;4939;52.00085300;4.17406100;2022-09-02T03:14:26;7.18;;;1.55;;
9799;SDS011;4939;52.00085300;4.17406100;2022-09-02T03:16:53;3.97;;;1.42;;
9799;SDS011;4939;52.00085300;4.17406100;2022-09-02T03:19:19;8.88;;;1.83;;
9799;SDS011;4939;52.00085300;4.17406100;2022-09-02T03:21:45;4.88;;;1.48;;
9799;SDS011;4939;52.00085300;4.17406100;2022-09-02T03:24:11;6.47;;;1.67;;
9799;SDS011;4939;52.00085300;4.17406100;2022-09-02T03:26:37;5.63;;;1.55;;
9799;SDS011;4939;52.00085300;4.17406100;2022-09-02T03:29:05;6.95;;;1.58;;
9799;SDS011;4939;52.00085300;4.17406100;2022-09-02T03:31:31;5.45;;;1.88;;
9799;SDS011;4939;52.00085300;4.17406100;2022-09-02T03:33:57;8.32;;;1.92;;
9799;SDS011;4939;52.00085300;4.17406100;2022-09-02T03:36:28;3.47;;;1.45;;
9799;SDS011;4939;52.00085300;4.17406100;2022-09-02T03:38:55;4.95;;;1.60;;
9799;SDS011;4939;52.00085300;4.17406100;2022-09-02T03:41:22;6.57;;;1.40;;
9799;SDS011;4939;52.00085300;4.17406100;2022-09-02T03:43:48;5.00;;;1.70;;
9799;SDS011;4939;52.00085300;4.17406100;2022-09-02T03:46:14;4.82;;;1.80;;
9799;SDS011;4939;52.00085300;4.17406100;2022-09-02T03:48:40;9.20;;;1.73;;
9799;SDS011;4939;52.00085300;4.17406100;2022-09-02T03:51:06;8.27;;;2.05;;
9799;SDS011;4939;52.00085300;4.17406100;2022-09-02T03:53:33;7.50;;;1.90;;
9799;SDS011;4939;52.00085300;4.17406100;2022-09-02T03:56:06;3.60;;;1.50;;
9799;SDS011;4939;52.00085300;4.17406100;2022-09-02T03:58:33;5.82;;;1.70;;
9799;SDS011;4939;52.00085300;4.17406100;2022-09-02T04:01:00;7.55;;;1.80;;
9799;SDS011;4939;52.00085300;4.17406100;2022-09-02T04:03:26;6.07;;;1.83;;
9799;SDS011;4939;52.00085300;4.17406100;2022-09-02T04:05:52;7.10;;;1.70;;
9799;SDS011;4939;52.00085300;4.17406100;2022-09-02T04:08:19;5.55;;;1.88;;
9799;SDS011;4939;52.00085300;4.17406100;2022-09-02T04:10:45;4.50;;;1.75;;
9799;SDS011;4939;52.00085300;4.17406100;2022-09-02T04:13:11;5.43;;;1.67;;
9799;SDS011;4939;52.00085300;4.17406100;2022-09-02T04:15:41;10.27;;;2.53;;
9799;SDS011;4939;52.00085300;4.17406100;2022-09-02T04:18:09;5.25;;;2.00;;
9799;SDS011;4939;52.00085300;4.17406100;2022-09-02T04:20:36;8.43;;;1.88;;
9799;SDS011;4939;52.00085300;4.17406100;2022-09-02T04:23:03;7.63;;;1.77;;
9799;SDS011;4939;52.00085300;4.17406100;2022-09-02T04:25:30;6.97;;;1.77;;
9799;SDS011;4939;52.00085300;4.17406100;2022-09-02T04:27:56;4.43;;;1.58;;
9799;SDS011;4939;52.00085300;4.17406100;2022-09-02T04:30:22;5.47;;;1.70;;
9799;SDS011;4939;52.00085300;4.17406100;2022-09-02T04:32:49;7.50;;;1.83;;
9799;SDS011;4939;52.00085300;4.17406100;2022-09-02T04:35:15;5.95;;;1.88;;
9799;SDS011;4939;52.00085300;4.17406100;2022-09-02T04:37:41;6.22;;;2.03;;
9799;SDS011;4939;52.00085300;4.17406100;2022-09-02T04:40:08;5.40;;;1.58;;
9799;SDS011;4939;52.00085300;4.17406100;2022-09-02T04:42:35;6.32;;;1.70;;
9799;SDS011;4939;52.00085300;4.17406100;2022-09-02T04:45:02;8.20;;;1.75;;
9799;SDS011;4939;52.00085300;4.17406100;2022-09-02T04:47:28;4.00;;;1.58;;
9799;SDS011;4939;52.00085300;4.17406100;2022-09-02T04:49:55;4.75;;;1.60;;
9799;SDS011;4939;52.00085300;4.17406100;2022-09-02T04:52:21;5.05;;;1.52;;
9799;SDS011;4939;52.00085300;4.17406100;2022-09-02T04:54:47;9.27;;;1.77;;
9799;SDS011;4939;52.00085300;4.17406100;2022-09-02T04:57:14;5.78;;;1.75;;
9799;SDS011;4939;52.00085300;4.17406100;2022-09-02T04:59:40;6.05;;;1.63;;
9799;SDS011;4939;52.00085300;4.17406100;2022-09-02T05:02:06;8.18;;;1.90;;
9799;SDS011;4939;52.00085300;4.17406100;2022-09-02T05:04:33;9.43;;;2.22;;
9799;SDS011;4939;52.00085300;4.17406100;2022-09-02T05:07:00;7.63;;;1.70;;
9799;SDS011;4939;52.00085300;4.17406100;2022-09-02T05:09:27;9.68;;;2.00;;
9799;SDS011;4939;52.00085300;4.17406100;2022-09-02T05:11:53;4.57;;;1.50;;
9799;SDS011;4939;52.00085300;4.17406100;2022-09-02T05:14:25;8.02;;;1.60;;
9799;SDS011;4939;52.00085300;4.17406100;2022-09-02T05:16:52;6.80;;;2.13;;
9799;SDS011;4939;52.00085300;4.17406100;2022-09-02T05:19:19;7.68;;;2.22;;
9799;SDS011;4939;52.00085300;4.17406100;2022-09-02T05:21:47;6.38;;;2.85;;
9799;SDS011;4939;52.00085300;4.17406100;2022-09-02T05:24:13;6.35;;;2.17;;
9799;SDS011;4939;52.00085300;4.17406100;2022-09-02T05:26:40;6.82;;;1.67;;
9799;SDS011;4939;52.00085300;4.17406100;2022-09-02T05:29:09;8.98;;;2.22;;
9799;SDS011;4939;52.00085300;4.17406100;2022-09-02T05:31:35;9.50;;;3.60;;
9799;SDS011;4939;52.00085300;4.17406100;2022-09-02T05:34:01;7.13;;;2.00;;
9799;SDS011;4939;52.00085300;4.17406100;2022-09-02T05:36:27;5.30;;;1.70;;
9799;SDS011;4939;52.00085300;4.17406100;2022-09-02T05:38:55;8.30;;;2.20;;
9799;SDS011;4939;52.00085300;4.17406100;2022-09-02T05:41:22;8.45;;;2.85;;
9799;SDS011;4939;52.00085300;4.17406100;2022-09-02T05:43:49;6.55;;;1.80;;
9799;SDS011;4939;52.00085300;4.17406100;2022-09-02T05:46:17;4.80;;;1.67;;
9799;SDS011;4939;52.00085300;4.17406100;2022-09-02T05:48:45;3.92;;;1.60;;
9799;SDS011;4939;52.00085300;4.17406100;2022-09-02T05:51:31;10.13;;;1.90;;
9799;SDS011;4939;52.00085300;4.17406100;2022-09-02T05:53:57;5.95;;;1.80;;
9799;SDS011;4939;52.00085300;4.17406100;2022-09-02T05:56:24;6.40;;;2.47;;
9799;SDS011;4939;52.00085300;4.17406100;2022-09-02T05:58:51;10.55;;;3.00;;
9799;SDS011;4939;52.00085300;4.17406100;2022-09-02T06:01:17;11.30;;;2.28;;
9799;SDS011;4939;52.00085300;4.17406100;2022-09-02T06:03:44;5.85;;;2.20;;
9799;SDS011;4939;52.00085300;4.17406100;2022-09-02T06:06:10;10.88;;;1.90;;
9799;SDS011;4939;52.00085300;4.17406100;2022-09-02T06:08:36;4.63;;;1.52;;
9799;SDS011;4939;52.00085300;4.17406100;2022-09-02T06:11:03;7.28;;;1.85;;
9799;SDS011;4939;52.00085300;4.17406100;2022-09-02T06:13:29;7.00;;;1.65;;
9799;SDS011;4939;52.00085300;4.17406100;2022-09-02T06:15:55;6.88;;;2.00;;
9799;SDS011;4939;52.00085300;4.17406100;2022-09-02T06:18:22;8.35;;;1.80;;
9799;SDS011;4939;52.00085300;4.17406100;2022-09-02T06:20:48;8.43;;;2.17;;
9799;SDS011;4939;52.00085300;4.17406100;2022-09-02T06:23:14;7.88;;;2.22;;
9799;SDS011;4939;52.00085300;4.17406100;2022-09-02T06:25:41;4.93;;;1.75;;
9799;SDS011;4939;52.00085300;4.17406100;2022-09-02T06:28:08;4.85;;;1.80;;
9799;SDS011;4939;52.00085300;4.17406100;2022-09-02T06:30:36;10.32;;;2.22;;
9799;SDS011;4939;52.00085300;4.17406100;2022-09-02T06:33:02;9.23;;;2.03;;
9799;SDS011;4939;52.00085300;4.17406100;2022-09-02T06:35:29;5.97;;;2.00;;
9799;SDS011;4939;52.00085300;4.17406100;2022-09-02T06:37:58;5.80;;;2.00;;
9799;SDS011;4939;52.00085300;4.17406100;2022-09-02T06:40:24;8.90;;;2.20;;
9799;SDS011;4939;52.00085300;4.17406100;2022-09-02T06:42:50;7.97;;;2.20;;
9799;SDS011;4939;52.00085300;4.17406100;2022-09-02T06:45:18;9.18;;;3.10;;
9799;SDS011;4939;52.00085300;4.17406100;2022-09-02T06:47:44;4.10;;;1.83;;
9799;SDS011;4939;52.00085300;4.17406100;2022-09-02T06:50:10;5.00;;;1.75;;
9799;SDS011;4939;52.00085300;4.17406100;2022-09-02T06:52:37;7.45;;;2.10;;
9799;SDS011;4939;52.00085300;4.17406100;2022-09-02T06:55:03;7.57;;;2.38;;
9799;SDS011;4939;52.00085300;4.17406100;2022-09-02T06:57:29;11.52;;;1.92;;
9799;SDS011;4939;52.00085300;4.17406100;2022-09-02T06:59:55;7.43;;;2.60;;
9799;SDS011;4939;52.00085300;4.17406100;2022-09-02T07:02:21;6.63;;;2.20;;
9799;SDS011;4939;52.00085300;4.17406100;2022-09-02T07:04:47;8.27;;;2.40;;
9799;SDS011;4939;52.00085300;4.17406100;2022-09-02T07:07:33;6.80;;;2.05;;
9799;SDS011;4939;52.00085300;4.17406100;2022-09-02T07:09:59;9.35;;;2.45;;
9799;SDS011;4939;52.00085300;4.17406100;2022-09-02T07:12:25;11.40;;;2.78;;
9799;SDS011;4939;52.00085300;4.17406100;2022-09-02T07:14:52;7.05;;;2.40;;
9799;SDS011;4939;52.00085300;4.17406100;2022-09-02T07:17:19;9.55;;;2.78;;
9799;SDS011;4939;52.00085300;4.17406100;2022-09-02T07:19:47;9.75;;;3.25;;
9799;SDS011;4939;52.00085300;4.17406100;2022-09-02T07:22:13;6.18;;;2.30;;
9799;SDS011;4939;52.00085300;4.17406100;2022-09-02T07:24:39;9.57;;;2.28;;
9799;SDS011;4939;52.00085300;4.17406100;2022-09-02T07:27:05;11.15;;;2.95;;
9799;SDS011;4939;52.00085300;4.17406100;2022-09-02T07:29:32;6.43;;;2.45;;
9799;SDS011;4939;52.00085300;4.17406100;2022-09-02T07:31:58;10.15;;;2.78;;
9799;SDS011;4939;52.00085300;4.17406100;2022-09-02T07:34:24;6.28;;;2.38;;
9799;SDS011;4939;52.00085300;4.17406100;2022-09-02T07:36:50;6.40;;;2.92;;
9799;SDS011;4939;52.00085300;4.17406100;2022-09-02T07:39:17;6.15;;;2.58;;
9799;SDS011;4939;52.00085300;4.17406100;2022-09-02T07:41:44;9.52;;;2.80;;
9799;SDS011;4939;52.00085300;4.17406100;2022-09-02T07:44:10;9.07;;;3.28;;
9799;SDS011;4939;52.00085300;4.17406100;2022-09-02T07:46:37;6.93;;;2.80;;
9799;SDS011;4939;52.00085300;4.17406100;2022-09-02T07:49:04;8.23;;;3.13;;
9799;SDS011;4939;52.00085300;4.17406100;2022-09-02T07:51:32;7.25;;;3.28;;
9799;SDS011;4939;52.00085300;4.17406100;2022-09-02T07:53:58;8.63;;;2.78;;
9799;SDS011;4939;52.00085300;4.17406100;2022-09-02T07:56:24;7.85;;;3.22;;
9799;SDS011;4939;52.00085300;4.17406100;2022-09-02T07:58:50;7.00;;;2.90;;
9799;SDS011;4939;52.00085300;4.17406100;2022-09-02T08:01:16;8.55;;;3.38;;
9799;SDS011;4939;52.00085300;4.17406100;2022-09-02T08:03:44;11.63;;;2.92;;
9799;SDS011;4939;52.00085300;4.17406100;2022-09-02T08:06:10;9.50;;;3.25;;
9799;SDS011;4939;52.00085300;4.17406100;2022-09-02T08:08:37;10.13;;;2.88;;
9799;SDS011;4939;52.00085300;4.17406100;2022-09-02T08:11:04;15.32;;;3.40;;
9799;SDS011;4939;52.00085300;4.17406100;2022-09-02T08:13:30;8.85;;;3.60;;
9799;SDS011;4939;52.00085300;4.17406100;2022-09-02T08:15:56;8.70;;;2.97;;
9799;SDS011;4939;52.00085300;4.17406100;2022-09-02T08:18:22;6.70;;;2.83;;
9799;SDS011;4939;52.00085300;4.17406100;2022-09-02T08:20:49;7.80;;;3.42;;
9799;SDS011;4939;52.00085300;4.17406100;2022-09-02T08:23:15;10.43;;;3.28;;
9799;SDS011;4939;52.00085300;4.17406100;2022-09-02T08:25:41;9.50;;;3.70;;
9799;SDS011;4939;52.00085300;4.17406100;2022-09-02T08:28:09;9.55;;;3.22;;
9799;SDS011;4939;52.00085300;4.17406100;2022-09-02T08:30:36;10.75;;;3.70;;
9799;SDS011;4939;52.00085300;4.17406100;2022-09-02T08:33:02;11.18;;;3.45;;
9799;SDS011;4939;52.00085300;4.17406100;2022-09-02T08:35:28;8.00;;;3.50;;
9799;SDS011;4939;52.00085300;4.17406100;2022-09-02T08:37:56;8.50;;;3.53;;
9799;SDS011;4939;52.00085300;4.17406100;2022-09-02T08:40:22;8.55;;;3.45;;
9799;SDS011;4939;52.00085300;4.17406100;2022-09-02T08:42:50;10.70;;;3.60;;
9799;SDS011;4939;52.00085300;4.17406100;2022-09-02T08:47:44;7.65;;;3.55;;
9799;SDS011;4939;52.00085300;4.17406100;2022-09-02T08:50:12;11.10;;;3.63;;
9799;SDS011;4939;52.00085300;4.17406100;2022-09-02T08:52:43;12.68;;;3.53;;
9799;SDS011;4939;52.00085300;4.17406100;2022-09-02T08:58:04;12.13;;;3.63;;
9799;SDS011;4939;52.00085300;4.17406100;2022-09-02T09:00:33;8.48;;;4.25;;
9799;SDS011;4939;52.00085300;4.17406100;2022-09-02T09:03:11;8.00;;;3.90;;
9799;SDS011;4939;52.00085300;4.17406100;2022-09-02T09:08:32;12.52;;;4.03;;
9799;SDS011;4939;52.00085300;4.17406100;2022-09-02T09:11:09;7.85;;;3.78;;
9799;SDS011;4939;52.00085300;4.17406100;2022-09-02T09:13:43;11.45;;;4.40;;
9799;SDS011;4939;52.00085300;4.17406100;2022-09-02T09:16:29;13.25;;;4.70;;
9799;SDS011;4939;52.00085300;4.17406100;2022-09-02T09:19:02;9.95;;;4.90;;
9799;SDS011;4939;52.00085300;4.17406100;2022-09-02T09:21:31;11.18;;;4.40;;
9799;SDS011;4939;52.00085300;4.17406100;2022-09-02T09:23:58;9.48;;;4.32;;
9799;SDS011;4939;52.00085300;4.17406100;2022-09-02T09:26:27;12.43;;;4.80;;
9799;SDS011;4939;52.00085300;4.17406100;2022-09-02T09:28:54;7.40;;;3.55;;
9799;SDS011;4939;52.00085300;4.17406100;2022-09-02T09:31:21;10.13;;;4.32;;
9799;SDS011;4939;52.00085300;4.17406100;2022-09-02T09:34:02;13.40;;;4.45;;
9799;SDS011;4939;52.00085300;4.17406100;2022-09-02T09:41:49;11.52;;;4.88;;
9799;SDS011;4939;52.00085300;4.17406100;2022-09-02T09:47:05;13.05;;;4.85;;
9799;SDS011;4939;52.00085300;4.17406100;2022-09-02T09:49:32;11.93;;;5.22;;
9799;SDS011;4939;52.00085300;4.17406100;2022-09-02T09:51:59;13.15;;;4.40;;
9799;SDS011;4939;52.00085300;4.17406100;2022-09-02T09:54:25;10.70;;;4.50;;
9799;SDS011;4939;52.00085300;4.17406100;2022-09-02T09:56:52;8.48;;;4.25;;
9799;SDS011;4939;52.00085300;4.17406100;2022-09-02T10:02:24;15.23;;;4.95;;
9799;SDS011;4939;52.00085300;4.17406100;2022-09-02T10:04:51;15.55;;;4.93;;
9799;SDS011;4939;52.00085300;4.17406100;2022-09-02T10:07:33;12.52;;;4.75;;
9799;SDS011;4939;52.00085300;4.17406100;2022-09-02T10:10:19;9.82;;;4.40;;
9799;SDS011;4939;52.00085300;4.17406100;2022-09-02T10:12:45;15.07;;;5.45;;
9799;SDS011;4939;52.00085300;4.17406100;2022-09-02T10:15:12;12.18;;;4.53;;
9799;SDS011;4939;52.00085300;4.17406100;2022-09-02T10:20:13;15.88;;;5.10;;
9799;SDS011;4939;52.00085300;4.17406100;2022-09-02T10:28:18;9.73;;;4.15;;
9799;SDS011;4939;52.00085300;4.17406100;2022-09-02T10:36:40;9.68;;;4.45;;
9799;SDS011;4939;52.00085300;4.17406100;2022-09-02T10:39:10;12.57;;;4.30;;
9799;SDS011;4939;52.00085300;4.17406100;2022-09-02T10:41:40;11.93;;;5.03;;
9799;SDS011;4939;52.00085300;4.17406100;2022-09-02T10:52:09;11.27;;;4.68;;
9799;SDS011;4939;52.00085300;4.17406100;2022-09-02T10:57:19;15.60;;;4.68;;
9799;SDS011;4939;52.00085300;4.17406100;2022-09-02T10:59:51;10.07;;;4.28;;
9799;SDS011;4939;52.00085300;4.17406100;2022-09-02T11:02:27;9.20;;;4.50;;
9799;SDS011;4939;52.00085300;4.17406100;2022-09-02T11:04:58;11.13;;;4.82;;
9799;SDS011;4939;52.00085300;4.17406100;2022-09-02T11:07:35;8.40;;;3.95;;
9799;SDS011;4939;52.00085300;4.17406100;2022-09-02T11:10:05;11.85;;;3.90;;
9799;SDS011;4939;52.00085300;4.17406100;2022-09-02T11:12:35;9.23;;;4.95;;
9799;SDS011;4939;52.00085300;4.17406100;2022-09-02T11:15:18;13.52;;;4.50;;
9799;SDS011;4939;52.00085300;4.17406100;2022-09-02T11:17:47;11.25;;;4.35;;
9799;SDS011;4939;52.00085300;4.17406100;2022-09-02T11:20:17;9.45;;;4.25;;
9799;SDS011;4939;52.00085300;4.17406100;2022-09-02T11:22:51;13.40;;;4.68;;
9799;SDS011;4939;52.00085300;4.17406100;2022-09-02T11:25:21;10.70;;;3.65;;
9799;SDS011;4939;52.00085300;4.17406100;2022-09-02T11:30:34;11.25;;;4.15;;
9799;SDS011;4939;52.00085300;4.17406100;2022-09-02T11:35:34;8.27;;;3.88;;
9799;SDS011;4939;52.00085300;4.17406100;2022-09-02T11:38:22;8.45;;;4.40;;
9799;SDS011;4939;52.00085300;4.17406100;2022-09-02T11:46:11;8.25;;;3.67;;
9799;SDS011;4939;52.00085300;4.17406100;2022-09-02T11:53:51;11.20;;;4.07;;
9799;SDS011;4939;52.00085300;4.17406100;2022-09-02T11:56:21;10.48;;;3.70;;
9799;SDS011;4939;52.00085300;4.17406100;2022-09-02T11:58:51;15.75;;;3.70;;
9799;SDS011;4939;52.00085300;4.17406100;2022-09-02T12:01:21;13.47;;;3.53;;
9799;SDS011;4939;52.00085300;4.17406100;2022-09-02T12:03:50;11.07;;;3.28;;
9799;SDS011;4939;52.00085300;4.17406100;2022-09-02T12:06:18;6.43;;;3.50;;
9799;SDS011;4939;52.00085300;4.17406100;2022-09-02T12:13:55;6.28;;;3.13;;
9799;SDS011;4939;52.00085300;4.17406100;2022-09-02T12:21:22;11.20;;;3.42;;
9799;SDS011;4939;52.00085300;4.17406100;2022-09-02T12:28:44;9.30;;;3.28;;
9799;SDS011;4939;52.00085300;4.17406100;2022-09-02T12:31:13;17.33;;;3.40;;
9799;SDS011;4939;52.00085300;4.17406100;2022-09-02T12:36:06;9.52;;;3.45;;
9799;SDS011;4939;52.00085300;4.17406100;2022-09-02T12:38:39;8.25;;;3.35;;
9799;SDS011;4939;52.00085300;4.17406100;2022-09-02T12:46:42;11.07;;;3.10;;
9799;SDS011;4939;52.00085300;4.17406100;2022-09-02T12:54:26;10.02;;;3.50;;
9799;SDS011;4939;52.00085300;4.17406100;2022-09-02T12:56:55;15.57;;;3.17;;
9799;SDS011;4939;52.00085300;4.17406100;2022-09-02T12:59:24;10.65;;;3.05;;
9799;SDS011;4939;52.00085300;4.17406100;2022-09-02T13:01:54;12.57;;;3.60;;
9799;SDS011;4939;52.00085300;4.17406100;2022-09-02T13:04:27;7.95;;;2.65;;
9799;SDS011;4939;52.00085300;4.17406100;2022-09-02T13:07:23;9.85;;;3.17;;
9799;SDS011;4939;52.00085300;4.17406100;2022-09-02T13:15:21;12.45;;;2.80;;
9799;SDS011;4939;52.00085300;4.17406100;2022-09-02T13:20:49;10.52;;;2.95;;
9799;SDS011;4939;52.00085300;4.17406100;2022-09-02T13:23:43;10.48;;;3.13;;
9799;SDS011;4939;52.00085300;4.17406100;2022-09-02T13:26:23;9.13;;;3.13;;
9799;SDS011;4939;52.00085300;4.17406100;2022-09-02T13:29:11;10.38;;;2.85;;
9799;SDS011;4939;52.00085300;4.17406100;2022-09-02T13:31:42;8.38;;;2.85;;
9799;SDS011;4939;52.00085300;4.17406100;2022-09-02T13:34:24;8.05;;;2.63;;
9799;SDS011;4939;52.00085300;4.17406100;2022-09-02T13:36:50;11.05;;;2.70;;
9799;SDS011;4939;52.00085300;4.17406100;2022-09-02T13:39:16;9.07;;;2.47;;
9799;SDS011;4939;52.00085300;4.17406100;2022-09-02T13:41:42;6.90;;;2.88;;
9799;SDS011;4939;52.00085300;4.17406100;2022-09-02T13:44:10;11.25;;;2.78;;
9799;SDS011;4939;52.00085300;4.17406100;2022-09-02T13:46:43;10.98;;;3.22;;
9799;SDS011;4939;52.00085300;4.17406100;2022-09-02T13:52:06;10.07;;;3.28;;
9799;SDS011;4939;52.00085300;4.17406100;2022-09-02T13:54:37;12.05;;;3.17;;
9799;SDS011;4939;52.00085300;4.17406100;2022-09-02T13:57:05;8.52;;;3.03;;
9799;SDS011;4939;52.00085300;4.17406100;2022-09-02T13:59:39;10.00;;;3.10;;
9799;SDS011;4939;52.00085300;4.17406100;2022-09-02T14:04:52;11.90;;;3.38;;
9799;SDS011;4939;52.00085300;4.17406100;2022-09-02T14:07:27;9.87;;;3.13;;
9799;SDS011;4939;52.00085300;4.17406100;2022-09-02T14:09:53;9.23;;;3.95;;
9799;SDS011;4939;52.00085300;4.17406100;2022-09-02T14:12:21;9.43;;;3.58;;
9799;SDS011;4939;52.00085300;4.17406100;2022-09-02T14:14:47;9.82;;;4.00;;
9799;SDS011;4939;52.00085300;4.17406100;2022-09-02T14:17:18;11.30;;;4.45;;
9799;SDS011;4939;52.00085300;4.17406100;2022-09-02T14:19:45;14.63;;;4.30;;
9799;SDS011;4939;52.00085300;4.17406100;2022-09-02T14:22:25;12.63;;;3.78;;
9799;SDS011;4939;52.00085300;4.17406100;2022-09-02T14:24:52;13.50;;;3.95;;
9799;SDS011;4939;52.00085300;4.17406100;2022-09-02T14:27:21;10.48;;;3.88;;
9799;SDS011;4939;52.00085300;4.17406100;2022-09-02T14:29:55;12.35;;;4.47;;
9799;SDS011;4939;52.00085300;4.17406100;2022-09-02T14:32:26;12.48;;;3.83;;
9799;SDS011;4939;52.00085300;4.17406100;2022-09-02T14:35:18;10.60;;;3.63;;
9799;SDS011;4939;52.00085300;4.17406100;2022-09-02T14:37:48;9.48;;;3.92;;
9799;SDS011;4939;52.00085300;4.17406100;2022-09-02T14:40:15;7.63;;;3.95;;
9799;SDS011;4939;52.00085300;4.17406100;2022-09-02T14:42:45;10.80;;;3.80;;
9799;SDS011;4939;52.00085300;4.17406100;2022-09-02T14:45:12;9.15;;;4.13;;
9799;SDS011;4939;52.00085300;4.17406100;2022-09-02T14:47:38;9.07;;;3.67;;
9799;SDS011;4939;52.00085300;4.17406100;2022-09-02T14:50:08;11.25;;;4.00;;
9799;SDS011;4939;52.00085300;4.17406100;2022-09-02T14:52:35;14.18;;;4.35;;
9799;SDS011;4939;52.00085300;4.17406100;2022-09-02T14:55:02;10.40;;;3.78;;
9799;SDS011;4939;52.00085300;4.17406100;2022-09-02T14:57:31;7.53;;;3.33;;
9799;SDS011;4939;52.00085300;4.17406100;2022-09-02T15:00:08;13.77;;;3.75;;